createdAt,value
2022-08-26T00:01:44.950Z,16.20
2022-08-26T00:04:13.116Z,19.63
2022-08-26T00:06:42.456Z,16.52
2022-08-26T00:09:16.016Z,15.82
2022-08-26T00:11:46.027Z,16.70
2022-08-26T00:14:14.883Z,16.63
2022-08-26T00:16:47.813Z,15.45
2022-08-26T00:19:16.565Z,18.80
2022-08-26T00:21:44.418Z,16.67
2022-08-26T00:24:13.190Z,17.90
2022-08-26T00:26:41.366Z,16.40
2022-08-26T00:29:10.682Z,17.67
2022-08-26T00:31:38.417Z,19.40
2022-08-26T00:34:07.461Z,17.45
2022-08-26T00:36:37.310Z,15.02
2022-08-26T00:39:08.070Z,17.13
2022-08-26T00:41:36.074Z,16.15
2022-08-26T00:44:03.803Z,16.83
2022-08-26T00:46:34.812Z,18.42
2022-08-26T00:49:12.027Z,18.05
2022-08-26T00:51:43.571Z,16.63
2022-08-26T00:54:11.525Z,17.35
2022-08-26T00:56:42.143Z,20.60
2022-08-26T00:59:11.346Z,17.92
2022-08-26T01:01:42.522Z,18.45
2022-08-26T01:04:14.816Z,18.73
2022-08-26T01:06:42.719Z,17.15
2022-08-26T01:09:12.510Z,17.38
2022-08-26T01:11:40.124Z,18.08
2022-08-26T01:14:08.474Z,17.38
2022-08-26T01:16:37.147Z,19.57
2022-08-26T01:19:16.617Z,20.85
2022-08-26T01:21:47.797Z,16.48
2022-08-26T01:24:17.209Z,16.50
2022-08-26T01:26:45.354Z,18.73
2022-08-26T01:29:15.342Z,18.30
2022-08-26T01:31:44.044Z,15.38
2022-08-26T01:34:15.734Z,19.40
2022-08-26T01:36:45.921Z,15.00
2022-08-26T01:39:17.101Z,18.02
2022-08-26T01:41:45.375Z,17.90
2022-08-26T01:44:16.098Z,17.17
2022-08-26T01:46:44.485Z,19.25
2022-08-26T01:49:15.144Z,16.70
2022-08-26T01:51:44.523Z,15.93
2022-08-26T01:54:13.910Z,16.70
2022-08-26T01:56:43.092Z,18.33
2022-08-26T01:59:12.934Z,18.40
2022-08-26T02:01:41.240Z,17.23
2022-08-26T02:04:11.072Z,18.35
2022-08-26T02:06:38.965Z,18.70
2022-08-26T02:09:07.912Z,17.50
2022-08-26T02:11:36.818Z,18.15
2022-08-26T02:14:06.942Z,13.65
2022-08-26T02:16:37.215Z,15.43
2022-08-26T02:19:05.858Z,19.30
2022-08-26T02:21:34.715Z,18.25
2022-08-26T02:24:09.355Z,18.73
2022-08-26T02:26:37.869Z,17.35
2022-08-26T02:29:10.897Z,18.10
2022-08-26T02:31:39.823Z,18.73
2022-08-26T02:34:11.288Z,18.80
2022-08-26T02:36:38.872Z,19.10
2022-08-26T02:39:07.251Z,17.60
2022-08-26T02:41:35.401Z,20.98
2022-08-26T02:44:13.709Z,18.43
2022-08-26T02:46:41.465Z,18.10
2022-08-26T02:49:14.412Z,20.27
2022-08-26T02:51:43.031Z,20.95
2022-08-26T02:54:10.840Z,21.38
2022-08-26T02:56:38.437Z,17.97
2022-08-26T02:59:06.154Z,17.45
2022-08-26T03:01:37.091Z,18.20
2022-08-26T03:04:05.749Z,16.50
2022-08-26T03:06:33.405Z,20.35
2022-08-26T03:09:00.988Z,19.13
2022-08-26T03:11:32.997Z,20.00
2022-08-26T03:14:03.370Z,18.63
2022-08-26T03:16:32.355Z,21.00
2022-08-26T03:19:02.379Z,19.92
2022-08-26T03:21:31.058Z,18.83
2022-08-26T03:23:58.969Z,21.38
2022-08-26T03:26:28.177Z,16.85
2022-08-26T03:29:13.372Z,22.60
2022-08-26T03:31:41.067Z,20.70
2022-08-26T03:34:11.445Z,19.07
2022-08-26T03:36:39.350Z,19.65
2022-08-26T03:39:09.285Z,20.25
2022-08-26T03:41:36.854Z,21.33
2022-08-26T03:44:06.084Z,18.55
2022-08-26T03:46:34.425Z,19.30
2022-08-26T03:49:02.672Z,22.00
2022-08-26T03:51:31.867Z,23.15
2022-08-26T03:54:03.022Z,22.02
2022-08-26T03:56:30.854Z,19.23
2022-08-26T03:59:00.144Z,23.97
2022-08-26T04:01:27.967Z,27.08
2022-08-26T04:04:01.587Z,22.30
2022-08-26T04:06:32.976Z,20.83
2022-08-26T04:09:02.307Z,21.33
2022-08-26T04:11:34.169Z,22.90
2022-08-26T04:14:03.625Z,21.15
2022-08-26T04:16:31.804Z,20.92
2022-08-26T04:18:59.715Z,18.45
2022-08-26T04:21:27.795Z,19.92
2022-08-26T04:23:58.301Z,23.93
2022-08-26T04:26:26.708Z,23.35
2022-08-26T04:28:55.131Z,23.65
2022-08-26T04:31:23.103Z,19.95
2022-08-26T04:33:51.211Z,20.83
2022-08-26T04:36:19.828Z,23.30
2022-08-26T04:38:47.807Z,22.27
2022-08-26T04:41:17.034Z,22.17
2022-08-26T04:43:45.535Z,24.33
2022-08-26T04:46:13.839Z,22.17
2022-08-26T04:48:42.067Z,22.60
2022-08-26T04:51:09.952Z,20.40
2022-08-26T04:53:38.060Z,23.05
2022-08-26T04:56:06.026Z,24.75
2022-08-26T04:58:35.948Z,22.77
2022-08-26T05:01:04.809Z,20.73
2022-08-26T05:03:32.340Z,22.17
2022-08-26T05:05:59.895Z,24.15
2022-08-26T05:08:27.578Z,24.52
2022-08-26T05:10:56.289Z,21.45
2022-08-26T05:13:26.204Z,22.53
2022-08-26T05:15:55.763Z,20.27
2022-08-26T05:18:30.004Z,22.55
2022-08-26T05:20:57.650Z,23.50
2022-08-26T05:23:25.323Z,22.60
2022-08-26T05:25:58.994Z,19.93
2022-08-26T05:28:28.570Z,22.55
2022-08-26T05:30:57.805Z,23.60
2022-08-26T05:33:25.648Z,29.17
2022-08-26T05:35:53.389Z,25.05
2022-08-26T05:38:22.201Z,22.07
2022-08-26T05:40:52.632Z,21.27
2022-08-26T05:43:20.971Z,20.33
2022-08-26T05:45:49.704Z,22.38
2022-08-26T05:48:22.550Z,22.42
2022-08-26T05:50:52.756Z,20.27
2022-08-26T05:53:21.269Z,20.60
2022-08-26T05:55:49.478Z,21.63
2022-08-26T05:58:20.061Z,18.52
2022-08-26T06:00:49.484Z,22.20
2022-08-26T06:03:18.867Z,21.17
2022-08-26T06:05:46.514Z,21.10
2022-08-26T06:08:15.113Z,20.75
2022-08-26T06:10:47.690Z,22.38
2022-08-26T06:13:17.140Z,22.80
2022-08-26T06:15:45.699Z,20.10
2022-08-26T06:18:13.771Z,21.65
2022-08-26T06:20:54.614Z,22.35
2022-08-26T06:23:43.008Z,21.05
2022-08-26T06:26:11.265Z,16.52
2022-08-26T06:28:38.978Z,19.27
2022-08-26T06:31:07.022Z,19.38
2022-08-26T06:33:35.855Z,19.40
2022-08-26T06:36:05.064Z,20.73
2022-08-26T06:38:32.772Z,15.60
2022-08-26T06:41:00.915Z,18.97
2022-08-26T06:43:29.650Z,17.15
2022-08-26T06:46:04.829Z,20.17
2022-08-26T06:48:33.603Z,18.65
2022-08-26T06:51:07.446Z,16.98
2022-08-26T06:53:35.166Z,17.23
2022-08-26T06:56:03.850Z,18.63
2022-08-26T06:58:32.120Z,17.17
2022-08-26T07:01:03.771Z,20.63
2022-08-26T07:03:39.786Z,18.90
2022-08-26T07:06:09.581Z,18.77
2022-08-26T07:08:38.344Z,18.02
2022-08-26T07:11:06.761Z,16.98
2022-08-26T07:13:37.017Z,16.83
2022-08-26T07:16:05.470Z,18.75
2022-08-26T07:18:34.738Z,17.27
2022-08-26T07:21:02.820Z,18.52
2022-08-26T07:23:32.056Z,18.70
2022-08-26T07:25:59.860Z,19.35
2022-08-26T07:28:28.442Z,19.83
2022-08-26T07:30:56.399Z,16.20
2022-08-26T07:33:26.001Z,16.65
2022-08-26T07:35:53.772Z,18.17
2022-08-26T07:38:21.528Z,19.92
2022-08-26T07:40:50.507Z,18.50
2022-08-26T07:43:18.488Z,21.23
2022-08-26T07:45:47.932Z,16.80
2022-08-26T07:48:15.581Z,16.02
2022-08-26T07:50:49.360Z,17.17
2022-08-26T07:53:19.347Z,17.48
2022-08-26T07:55:47.062Z,17.53
2022-08-26T07:58:16.558Z,16.23
2022-08-26T08:00:44.126Z,18.60
2022-08-26T08:03:12.248Z,21.13
2022-08-26T08:05:42.123Z,16.77
2022-08-26T08:08:26.909Z,17.60
2022-08-26T08:10:55.754Z,17.05
2022-08-26T08:13:25.035Z,16.23
2022-08-26T08:15:52.606Z,20.80
2022-08-26T08:18:20.911Z,17.52
2022-08-26T08:21:04.595Z,17.67
2022-08-26T08:23:36.549Z,18.60
2022-08-26T08:26:04.576Z,22.38
2022-08-26T08:28:33.559Z,17.08
2022-08-26T08:31:02.153Z,17.00
2022-08-26T08:33:31.261Z,17.53
2022-08-26T08:35:58.880Z,17.75
2022-08-26T08:38:26.677Z,16.90
2022-08-26T08:40:54.361Z,19.33
2022-08-26T08:43:29.427Z,17.95
2022-08-26T08:46:00.382Z,16.87
2022-08-26T08:48:30.028Z,16.15
2022-08-26T08:51:03.394Z,15.50
2022-08-26T08:53:32.873Z,16.38
2022-08-26T08:56:05.412Z,18.60
2022-08-26T08:58:43.625Z,16.73
2022-08-26T09:01:15.110Z,14.10
2022-08-26T09:03:48.405Z,14.43
2022-08-26T09:06:18.952Z,19.77
2022-08-26T09:08:47.252Z,17.17
2022-08-26T09:11:18.007Z,17.93
2022-08-26T09:13:46.329Z,18.37
2022-08-26T09:16:19.132Z,17.13
2022-08-26T09:18:56.220Z,12.80
2022-08-26T09:21:25.105Z,16.58
2022-08-26T09:23:53.802Z,21.30
2022-08-26T09:26:25.868Z,18.50
2022-08-26T09:28:57.760Z,16.02
2022-08-26T09:31:28.607Z,19.05
2022-08-26T09:34:07.204Z,15.70
2022-08-26T09:36:41.074Z,15.80
2022-08-26T09:39:25.349Z,13.57
2022-08-26T09:42:03.149Z,18.02
2022-08-26T09:44:31.219Z,15.73
2022-08-26T09:47:01.177Z,15.63
2022-08-26T09:49:35.803Z,16.83
2022-08-26T09:52:08.939Z,18.15
2022-08-26T09:54:37.972Z,13.88
2022-08-26T09:57:19.536Z,17.45
2022-08-26T09:59:49.372Z,16.70
2022-08-26T10:02:24.090Z,16.27
2022-08-26T10:04:54.100Z,13.93
2022-08-26T10:07:35.023Z,12.90
2022-08-26T10:10:04.601Z,14.00
2022-08-26T10:12:35.803Z,17.05
2022-08-26T10:15:09.153Z,13.82
2022-08-26T10:17:41.033Z,14.60
2022-08-26T10:20:22.551Z,16.58
2022-08-26T10:22:54.123Z,16.63
2022-08-26T10:25:24.450Z,16.10
2022-08-26T10:27:55.144Z,15.30
2022-08-26T10:30:24.201Z,16.52
2022-08-26T10:32:55.798Z,15.48
2022-08-26T10:35:23.633Z,15.32
2022-08-26T10:37:53.542Z,18.83
2022-08-26T10:40:23.856Z,16.60
2022-08-26T10:42:54.209Z,17.88
2022-08-26T10:45:25.286Z,15.20
2022-08-26T10:47:56.737Z,18.70
2022-08-26T10:50:25.958Z,17.52
2022-08-26T10:52:55.787Z,15.38
2022-08-26T10:55:26.291Z,20.25
2022-08-26T10:57:57.043Z,15.70
2022-08-26T11:00:44.785Z,16.47
2022-08-26T11:03:22.936Z,15.63
2022-08-26T11:06:05.312Z,17.33
2022-08-26T11:08:32.985Z,14.27
2022-08-26T11:11:01.035Z,15.13
2022-08-26T11:13:55.496Z,13.15
2022-08-26T11:16:32.894Z,15.23
2022-08-26T11:19:04.914Z,13.63
2022-08-26T11:21:49.461Z,16.00
2022-08-26T11:24:38.175Z,16.50
2022-08-26T11:27:08.399Z,14.00
2022-08-26T11:30:04.911Z,14.38
2022-08-26T11:32:50.730Z,17.67
2022-08-26T11:35:46.030Z,14.73
2022-08-26T11:38:18.506Z,15.07
2022-08-26T11:40:57.584Z,13.73
2022-08-26T11:43:30.251Z,14.20
2022-08-26T11:46:02.251Z,16.20
2022-08-26T11:48:34.053Z,15.35
2022-08-26T11:51:06.509Z,15.73
2022-08-26T11:53:41.566Z,16.00
2022-08-26T11:56:11.187Z,13.60
2022-08-26T11:58:43.302Z,17.38
2022-08-26T12:01:13.900Z,15.80
2022-08-26T12:03:49.836Z,18.65
2022-08-26T12:08:57.960Z,15.32
2022-08-26T12:11:29.069Z,17.90
2022-08-26T12:13:59.779Z,17.20
2022-08-26T12:16:30.298Z,16.48
2022-08-26T12:19:00.021Z,19.83
2022-08-26T12:21:34.848Z,18.23
2022-08-26T12:24:10.129Z,15.18
2022-08-26T12:26:40.088Z,19.55
2022-08-26T12:29:26.868Z,17.77
2022-08-26T12:32:11.607Z,17.95
2022-08-26T12:34:41.233Z,16.87
2022-08-26T12:37:13.952Z,16.10
2022-08-26T12:39:46.246Z,15.70
2022-08-26T12:42:26.073Z,17.52
2022-08-26T12:45:01.529Z,21.25
2022-08-26T12:47:42.239Z,17.98
2022-08-26T12:50:15.241Z,16.38
2022-08-26T12:52:45.434Z,20.23
2022-08-26T12:55:22.940Z,17.23
2022-08-26T12:57:52.861Z,18.48
2022-08-26T13:00:40.261Z,19.77
2022-08-26T13:03:24.652Z,18.73
2022-08-26T13:05:52.793Z,20.90
2022-08-26T13:08:26.589Z,17.95
2022-08-26T13:11:04.689Z,18.02
2022-08-26T13:13:32.692Z,16.98
2022-08-26T13:16:00.523Z,17.85
2022-08-26T13:18:28.145Z,17.20
2022-08-26T13:20:55.972Z,19.77
2022-08-26T13:23:24.416Z,18.65
2022-08-26T13:25:52.011Z,19.02
2022-08-26T13:28:20.951Z,18.83
2022-08-26T13:30:49.758Z,17.73
2022-08-26T13:33:18.581Z,18.92
2022-08-26T13:35:46.173Z,19.52
2022-08-26T13:38:32.870Z,17.75
2022-08-26T13:41:00.763Z,18.15
2022-08-26T13:43:29.864Z,17.07
2022-08-26T13:45:57.607Z,18.55
2022-08-26T13:48:25.683Z,19.77
2022-08-26T13:50:53.908Z,16.55
2022-08-26T13:53:21.634Z,15.50
2022-08-26T13:55:49.215Z,23.60
2022-08-26T13:58:17.458Z,16.70
2022-08-26T14:00:46.413Z,14.68
2022-08-26T14:03:14.634Z,21.85
2022-08-26T14:05:42.322Z,18.38
2022-08-26T14:08:10.098Z,16.00
2022-08-26T14:10:37.928Z,16.38
2022-08-26T14:13:05.693Z,17.48
2022-08-26T14:15:36.300Z,17.10
2022-08-26T14:18:06.632Z,20.23
2022-08-26T14:20:36.882Z,19.77
2022-08-26T14:23:13.554Z,17.63
2022-08-26T14:25:41.752Z,18.38
2022-08-26T14:28:09.338Z,17.67
2022-08-26T14:30:38.002Z,17.23
2022-08-26T14:33:07.027Z,17.83
2022-08-26T14:35:34.724Z,16.60
2022-08-26T14:38:02.814Z,17.25
2022-08-26T14:40:31.486Z,21.17
2022-08-26T14:43:01.864Z,16.95
2022-08-26T14:45:29.715Z,21.07
2022-08-26T14:47:57.557Z,16.75
2022-08-26T14:50:27.928Z,16.70
2022-08-26T14:53:13.309Z,16.48
2022-08-26T14:55:41.786Z,19.88
2022-08-26T14:58:10.581Z,16.03
2022-08-26T15:00:38.465Z,19.02
2022-08-26T15:03:06.723Z,16.55
2022-08-26T15:05:35.794Z,19.13
2022-08-26T15:08:04.683Z,20.15
2022-08-26T15:10:32.304Z,21.30
2022-08-26T15:13:01.075Z,19.45
2022-08-26T15:15:29.500Z,20.73
2022-08-26T15:17:57.122Z,16.92
2022-08-26T15:20:25.234Z,19.80
2022-08-26T15:22:54.282Z,19.67
2022-08-26T15:25:22.234Z,20.40
2022-08-26T15:27:50.474Z,15.85
2022-08-26T15:30:18.437Z,19.50
2022-08-26T15:32:46.300Z,19.35
2022-08-26T15:35:13.892Z,21.40
2022-08-26T15:37:41.578Z,18.10
2022-08-26T15:40:11.798Z,19.58
2022-08-26T15:42:39.587Z,17.52
2022-08-26T15:45:07.574Z,17.77
2022-08-26T15:47:35.470Z,15.57
2022-08-26T15:50:22.947Z,18.27
2022-08-26T15:52:50.530Z,17.08
2022-08-26T15:55:19.490Z,15.65
2022-08-26T15:57:51.172Z,16.33
2022-08-26T16:00:20.661Z,19.63
2022-08-26T16:02:48.361Z,19.35
2022-08-26T16:05:15.937Z,19.67
2022-08-26T16:07:43.537Z,17.63
2022-08-26T16:10:11.384Z,17.38
2022-08-26T16:12:40.435Z,16.40
2022-08-26T16:15:08.655Z,19.52
2022-08-26T16:17:36.270Z,17.23
2022-08-26T16:20:04.198Z,18.23
2022-08-26T16:22:32.224Z,15.85
2022-08-26T16:25:00.908Z,13.67
2022-08-26T16:27:28.469Z,18.92
2022-08-26T16:29:57.457Z,15.13
2022-08-26T16:32:29.367Z,15.85
2022-08-26T16:34:58.872Z,16.27
2022-08-26T16:37:26.469Z,16.40
2022-08-26T16:39:54.126Z,14.48
2022-08-26T16:42:21.751Z,16.33
2022-08-26T16:44:50.212Z,18.33
2022-08-26T16:47:19.555Z,14.57
2022-08-26T16:49:47.627Z,13.20
2022-08-26T16:52:15.281Z,16.00
2022-08-26T16:54:43.506Z,16.55
2022-08-26T16:57:12.518Z,13.45
2022-08-26T16:59:41.383Z,16.88
2022-08-26T17:02:10.642Z,16.73
2022-08-26T17:04:39.732Z,12.40
2022-08-26T17:07:07.331Z,17.17
2022-08-26T17:09:35.098Z,16.33
2022-08-26T17:12:03.406Z,16.98
2022-08-26T17:14:31.048Z,14.33
2022-08-26T17:16:59.284Z,13.85
2022-08-26T17:19:27.225Z,16.55
2022-08-26T17:21:56.197Z,16.02
2022-08-26T17:24:23.798Z,14.50
2022-08-26T17:26:53.536Z,16.30
2022-08-26T17:29:23.359Z,16.25
2022-08-26T17:31:50.946Z,20.20
2022-08-26T17:34:18.539Z,17.25
2022-08-26T17:36:46.088Z,15.50
2022-08-26T17:39:15.022Z,15.33
2022-08-26T17:41:42.579Z,14.05
2022-08-26T17:44:10.161Z,11.40
2022-08-26T17:46:38.428Z,13.55
2022-08-26T17:49:06.749Z,12.95
2022-08-26T17:51:34.343Z,11.70
2022-08-26T17:54:01.902Z,9.57
2022-08-26T17:56:30.852Z,10.45
2022-08-26T17:59:02.240Z,10.80
2022-08-26T18:01:30.466Z,10.07
2022-08-26T18:04:00.518Z,11.17
2022-08-26T18:06:28.814Z,10.73
2022-08-26T18:08:56.961Z,9.90
2022-08-26T18:11:24.689Z,10.45
2022-08-26T18:13:53.750Z,9.85
2022-08-26T18:16:21.731Z,10.17
2022-08-26T18:18:53.086Z,9.05
2022-08-26T18:21:21.524Z,10.43
2022-08-26T18:23:49.440Z,9.35
2022-08-26T18:26:18.145Z,9.80
2022-08-26T18:28:45.725Z,9.77
2022-08-26T18:31:15.298Z,9.25
2022-08-26T18:33:43.892Z,10.60
2022-08-26T18:36:16.031Z,11.77
2022-08-26T18:38:43.788Z,8.90
2022-08-26T18:41:11.507Z,9.50
2022-08-26T18:43:39.147Z,9.52
2022-08-26T18:46:07.821Z,10.40
2022-08-26T18:48:39.322Z,9.77
2022-08-26T18:51:07.220Z,9.68
2022-08-26T18:53:41.979Z,10.33
2022-08-26T18:56:09.606Z,9.45
2022-08-26T18:58:37.179Z,9.65
2022-08-26T19:01:05.014Z,10.32
2022-08-26T19:03:32.915Z,10.20
2022-08-26T19:06:01.843Z,9.73
2022-08-26T19:08:29.387Z,9.52
2022-08-26T19:10:57.206Z,10.95
2022-08-26T19:13:24.722Z,11.30
2022-08-26T19:15:52.301Z,9.18
2022-08-26T19:18:19.932Z,9.10
2022-08-26T19:20:48.005Z,8.05
2022-08-26T19:23:34.104Z,8.13
2022-08-26T19:26:04.220Z,10.15
2022-08-26T19:28:32.502Z,8.73
2022-08-26T19:31:00.837Z,8.73
2022-08-26T19:33:28.895Z,9.32
2022-08-26T19:35:56.735Z,8.93
2022-08-26T19:38:27.694Z,9.02
2022-08-26T19:40:55.448Z,9.23
2022-08-26T19:43:23.059Z,8.27
2022-08-26T19:45:50.692Z,9.05
2022-08-26T19:48:18.282Z,8.05
2022-08-26T19:50:46.451Z,10.23
2022-08-26T19:53:14.371Z,9.73
2022-08-26T19:55:43.499Z,9.00
2022-08-26T19:58:11.636Z,10.23
2022-08-26T20:00:40.081Z,9.40
2022-08-26T20:03:10.719Z,9.15
2022-08-26T20:05:43.448Z,11.70
2022-08-26T20:08:22.262Z,15.67
2022-08-26T20:10:52.470Z,17.48
2022-08-26T20:13:21.320Z,21.27
2022-08-26T20:15:49.022Z,20.02
2022-08-26T20:18:30.497Z,18.63
2022-08-26T20:21:15.710Z,18.30
2022-08-26T20:23:43.909Z,18.92
2022-08-26T20:26:13.282Z,21.67
2022-08-26T20:28:40.861Z,19.50
2022-08-26T20:31:09.591Z,19.48
2022-08-26T20:33:46.628Z,17.20
2022-08-26T20:36:15.085Z,18.02
2022-08-26T20:38:42.832Z,16.55
2022-08-26T20:41:10.454Z,16.20
2022-08-26T20:43:39.452Z,19.92
2022-08-26T20:46:08.371Z,19.83
2022-08-26T20:48:45.503Z,23.05
2022-08-26T20:51:13.102Z,15.10
2022-08-26T20:53:41.322Z,16.80
2022-08-26T20:56:10.225Z,17.95
2022-08-26T20:58:40.093Z,20.13
2022-08-26T21:01:08.860Z,20.55
2022-08-26T21:03:36.705Z,18.38
2022-08-26T21:06:04.903Z,16.10
2022-08-26T21:08:33.365Z,19.92
2022-08-26T21:11:01.959Z,18.87
2022-08-26T21:13:42.899Z,22.00
2022-08-26T21:16:20.500Z,19.45
2022-08-26T21:18:48.423Z,20.90
2022-08-26T21:21:16.003Z,20.42
2022-08-26T21:23:43.983Z,20.43
2022-08-26T21:26:12.815Z,23.20
2022-08-26T21:28:41.606Z,22.25
2022-08-26T21:31:11.091Z,24.23
2022-08-26T21:33:40.410Z,24.15
2022-08-26T21:36:08.733Z,22.77
2022-08-26T21:38:37.193Z,28.98
2022-08-26T21:41:07.016Z,22.70
2022-08-26T21:43:35.815Z,23.52
2022-08-26T21:46:07.533Z,22.02
2022-08-26T21:48:35.204Z,25.97
2022-08-26T21:51:06.125Z,24.33
2022-08-26T21:53:33.864Z,25.88
2022-08-26T21:56:04.962Z,23.58
2022-08-26T21:58:32.570Z,24.27
2022-08-26T22:01:00.243Z,29.73
2022-08-26T22:03:27.844Z,24.00
2022-08-26T22:06:01.491Z,27.52
2022-08-26T22:08:30.746Z,23.80
2022-08-26T22:10:58.534Z,23.60
2022-08-26T22:13:28.862Z,27.00
2022-08-26T22:15:57.849Z,23.30
2022-08-26T22:18:25.836Z,21.92
2022-08-26T22:20:55.374Z,21.58
2022-08-26T22:23:23.396Z,23.23
2022-08-26T22:25:52.330Z,23.00
2022-08-26T22:28:19.948Z,26.35
2022-08-26T22:30:48.394Z,23.45
2022-08-26T22:33:16.552Z,27.23
2022-08-26T22:35:46.159Z,21.98
2022-08-26T22:38:14.349Z,24.50
2022-08-26T22:40:44.757Z,24.92
2022-08-26T22:43:13.858Z,23.92
2022-08-26T22:45:42.669Z,22.05
2022-08-26T22:48:11.042Z,25.77
2022-08-26T22:50:41.186Z,21.33
2022-08-26T22:53:08.853Z,26.50
2022-08-26T22:55:36.419Z,19.98
2022-08-26T22:58:04.483Z,24.77
2022-08-26T23:00:34.279Z,22.33
2022-08-26T23:03:02.212Z,22.63
2022-08-26T23:05:29.899Z,27.73
2022-08-26T23:07:57.488Z,23.80
2022-08-26T23:10:25.641Z,28.38
2022-08-26T23:12:53.424Z,22.15
2022-08-26T23:15:21.950Z,26.07
2022-08-26T23:17:58.975Z,22.00
2022-08-26T23:20:27.494Z,23.88
2022-08-26T23:22:55.146Z,21.17
2022-08-26T23:25:23.182Z,22.38
2022-08-26T23:27:52.368Z,17.97
2022-08-26T23:30:21.345Z,18.52
2022-08-26T23:32:49.327Z,18.88
2022-08-26T23:35:21.494Z,21.13
2022-08-26T23:37:51.157Z,21.50
2022-08-26T23:40:20.188Z,17.47
2022-08-26T23:42:47.820Z,17.70
2022-08-26T23:45:18.408Z,20.23
2022-08-26T23:47:46.419Z,19.65
2022-08-26T23:50:14.540Z,15.40
2022-08-26T23:53:00.982Z,14.90
2022-08-26T23:55:28.542Z,16.95
2022-08-26T23:57:56.103Z,15.10
